Time;durP1;ratioP1;P1;durP2;ratioP2;P2;SDS_P1;SDS_P2;PMS_P1;PMS_P2;Temp;Humidity;BMP_temperature;BMP_pressure;BME280_temperature;BME280_humidity;BME280_pressure;Samples;Min_cycle;Max_cycle;Signal;HPM_P1;HPM_P2
2022/03/03 00:01:48;;;;;;;;;65.00;50.00;;;;;11.48;50.47;101305.97;4997146;28;47338;-91
2022/03/03 00:04:14;;;;;;;;;63.50;49.00;;;;;12.25;49.95;101450.81;4997203;28;45371;-91
2022/03/03 00:06:39;;;;;;;;;64.25;50.50;;;;;11.12;50.74;101253.06;5013940;28;45662;-91
2022/03/03 00:09:05;;;;;;;;;62.50;49.75;;;;;10.50;50.61;101146.03;5014162;28;45599;-91
2022/03/03 00:11:31;;;;;;;;;64.25;48.50;;;;;10.65;50.24;101165.94;5012536;28;48196;-91
2022/03/03 00:13:57;;;;;;;;;63.50;49.75;;;;;11.31;50.66;101269.25;4997088;28;45473;-91
2022/03/03 00:16:24;;;;;;;;;60.75;50.00;;;;;12.32;50.97;101446.97;4997265;28;45341;-91
2022/03/03 00:18:49;;;;;;;;;58.25;46.50;;;;;11.09;50.49;101245.19;5015346;27;45511;-91
2022/03/03 00:21:15;;;;;;;;;58.00;45.75;;;;;10.72;50.48;101190.53;5014419;28;47466;-91
2022/03/03 00:23:40;;;;;;;;;60.25;48.75;;;;;12.29;50.44;101449.75;5014932;28;45393;-91
2022/03/03 00:26:05;;;;;;;;;62.25;49.25;;;;;12.30;50.74;101443.47;5014985;28;45591;-91
2022/03/03 00:28:31;;;;;;;;;62.50;48.75;;;;;10.97;50.85;101215.38;5014063;28;45413;-92
2022/03/03 00:30:56;;;;;;;;;61.25;48.75;;;;;11.99;50.77;101404.59;5013717;28;48060;-92
2022/03/03 00:33:22;;;;;;;;;57.50;46.75;;;;;12.31;50.64;101453.22;5013678;28;45561;-91
2022/03/03 00:35:47;;;;;;;;;58.75;48.00;;;;;12.11;50.77;101421.09;4998423;28;45487;-91
2022/03/03 00:38:13;;;;;;;;;62.75;49.00;;;;;11.98;51.06;101391.28;4954719;28;45487;-91
2022/03/03 00:40:39;;;;;;;;;61.75;47.50;;;;;10.76;51.00;101181.50;4978501;28;47371;-91
2022/03/03 00:43:06;;;;;;;;;60.25;47.50;;;;;11.46;51.01;101331.84;5059597;28;45354;-91
2022/03/03 00:45:33;;;;;;;;;62.50;48.25;;;;;12.22;50.97;101453.56;5076852;28;45512;-92
2022/03/03 00:47:58;;;;;;;;;61.00;47.75;;;;;12.20;50.81;101450.97;5060339;28;45437;-92
2022/03/03 00:50:24;;;;;;;;;58.50;46.25;;;;;10.72;51.00;101207.44;5076254;28;47109;-91
2022/03/03 00:52:49;;;;;;;;;63.00;50.00;;;;;11.38;50.94;101324.16;5076625;28;45315;-91
2022/03/03 00:55:15;;;;;;;;;63.50;49.50;;;;;12.13;51.37;101462.84;5077797;28;45255;-91
2022/03/03 00:57:40;;;;;;;;;57.50;46.75;;;;;12.01;51.43;101449.94;5059979;28;45394;-91
2022/03/03 01:00:06;;;;;;;;;65.25;49.25;;;;;10.69;51.68;101222.66;5078614;28;45602;-89
2022/03/03 01:02:33;;;;;;;;;60.25;48.00;;;;;10.92;51.63;101273.34;5080060;28;45825;-91
2022/03/03 01:04:58;;;;;;;;;61.75;49.75;;;;;12.00;51.96;101461.56;5063017;28;45544;-91
2022/03/03 01:07:24;;;;;;;;;60.25;48.00;;;;;11.67;51.78;101405.78;5063108;28;45403;-91
2022/03/03 01:09:49;;;;;;;;;61.75;48.50;;;;;11.84;52.19;101437.19;5079897;28;47295;-91
2022/03/03 01:12:15;;;;;;;;;60.75;48.50;;;;;11.54;52.16;101383.13;5079837;28;45689;-91
2022/03/03 01:14:40;;;;;;;;;62.25;47.25;;;;;10.45;52.21;101211.09;5081300;28;45392;-91
2022/03/03 01:17:06;;;;;;;;;59.25;48.00;;;;;10.60;52.34;101234.50;5080034;28;45289;-90
2022/03/03 01:19:31;;;;;;;;;59.25;46.25;;;;;11.81;52.36;101453.34;5079514;28;47030;-91
2022/03/03 01:21:57;;;;;;;;;60.75;47.75;;;;;10.88;52.56;101311.72;5062705;28;45326;-91
2022/03/03 01:24:22;;;;;;;;;59.75;48.50;;;;;11.74;52.94;101447.34;5079288;28;45322;-91
2022/03/03 01:26:48;;;;;;;;;62.00;48.00;;;;;10.46;52.65;101236.81;5080522;28;45563;-91
2022/03/03 01:29:13;;;;;;;;;63.50;49.50;;;;;10.63;52.87;101278.84;5082426;28;47543;-91
2022/03/03 01:31:38;;;;;;;;;58.50;47.50;;;;;11.63;53.26;101457.56;5075341;28;45503;-91
2022/03/03 01:34:06;;;;;;;;;52.50;42.50;;;;;10.50;52.62;101254.44;5062534;28;45405;-91
2022/03/03 01:36:32;;;;;;;;;62.25;48.25;;;;;10.19;52.77;101199.53;5099665;27;45311;-91
2022/03/03 01:38:57;;;;;;;;;61.50;49.25;;;;;10.08;53.15;101177.72;5085824;27;48288;-92
2022/03/03 01:41:23;;;;;;;;;60.00;49.00;;;;;10.61;52.84;101286.91;5085160;27;45413;-91
2022/03/03 01:43:48;;;;;;;;;58.75;46.50;;;;;11.59;53.01;101445.28;5085897;27;45452;-92
2022/03/03 01:46:14;;;;;;;;;62.00;48.00;;;;;10.33;53.11;101231.06;5086080;27;45526;-91
2022/03/03 01:48:39;;;;;;;;;61.00;49.75;;;;;10.61;53.17;101270.06;5016966;28;46196;-91
2022/03/03 01:51:04;;;;;;;;;56.75;45.00;;;;;10.37;52.91;101230.00;5085691;27;45686;-91
2022/03/03 01:53:30;;;;;;;;;60.75;48.00;;;;;11.57;52.66;101447.13;5017316;27;45384;-91
2022/03/03 01:55:55;;;;;;;;;60.25;47.25;;;;;10.77;52.78;101289.91;5017312;28;45573;-91
2022/03/03 01:58:21;;;;;;;;;57.50;46.50;;;;;10.37;53.08;101224.66;5085125;27;47366;-91
2022/03/03 02:00:49;;;;;;;;;62.50;49.50;;;;;11.41;53.20;101396.94;5016791;28;45345;-90
2022/03/03 02:03:15;;;;;;;;;62.75;48.75;;;;;10.59;53.33;101266.56;5085363;27;45659;-91
2022/03/03 02:05:40;;;;;;;;;61.25;49.25;;;;;10.81;53.44;101304.00;5085281;27;45500;-91
2022/03/03 02:08:06;;;;;;;;;62.25;49.00;;;;;11.00;53.43;101329.06;5016488;28;46179;-91
2022/03/03 02:10:31;;;;;;;;;62.50;48.50;;;;;11.34;53.27;101367.88;5084872;27;45346;-91
2022/03/03 02:12:57;;;;;;;;;64.25;49.50;;;;;10.86;53.34;101294.03;5084145;27;45353;-91
2022/03/03 02:15:23;;;;;;;;;62.00;49.25;;;;;10.59;53.70;101255.91;5085567;27;45408;-91
2022/03/03 02:17:48;;;;;;;;;61.75;48.25;;;;;10.17;54.20;101176.53;5085012;27;46017;-91
2022/03/03 02:20:18;;;;;;;;;62.25;49.25;;;;;10.84;53.65;101307.44;5084994;27;45436;-91
2022/03/03 02:22:47;;;;;;;;;62.00;47.25;;;;;11.36;54.23;101371.38;5085553;27;45274;-91
2022/03/03 02:25:12;;;;;;;;;65.75;48.75;;;;;11.73;54.44;101432.28;5084981;27;45474;-92
2022/03/03 02:27:39;;;;;;;;;64.50;50.75;;;;;11.10;53.81;101317.16;5084891;27;47116;-91
2022/03/03 02:30:04;;;;;;;;;65.50;49.75;;;;;10.29;53.67;101169.00;5084872;27;45827;-91
2022/03/03 02:32:30;;;;;;;;;61.50;48.25;;;;;11.03;54.07;101307.66;5084823;27;45493;-91
2022/03/03 02:34:55;;;;;;;;;63.00;48.75;;;;;11.48;54.03;101362.03;5016926;28;45353;-91
2022/03/03 02:37:21;;;;;;;;;60.50;48.00;;;;;10.85;53.41;101257.63;5084584;27;48011;-91
2022/03/03 02:39:46;;;;;;;;;58.50;46.00;;;;;11.08;54.09;101279.00;5085169;27;45534;-91
2022/03/03 02:42:12;;;;;;;;;61.75;49.25;;;;;10.67;53.47;101209.38;5016385;27;45407;-92
2022/03/03 02:44:38;;;;;;;;;63.75;51.00;;;;;11.93;53.82;101417.31;5085071;27;45529;-91
2022/03/03 02:47:04;;;;;;;;;60.25;47.25;;;;;11.39;53.67;101313.38;5085024;27;47184;-92
2022/03/03 02:49:29;;;;;;;;;60.50;48.00;;;;;10.91;53.56;101236.06;5084451;27;45456;-90
2022/03/03 02:51:55;;;;;;;;;66.00;50.00;;;;;11.44;53.85;101309.69;5084864;27;45383;-91
2022/03/03 02:54:20;;;;;;;;;62.75;48.00;;;;;11.75;53.36;101347.63;5016522;27;45481;-91
2022/03/03 02:59:29;;;;;;;;;61.50;49.25;;;;;11.75;53.01;101326.28;5016497;28;45503;-92
2022/03/03 03:01:55;;;;;;;;;62.00;50.00;;;;;11.54;52.97;101287.94;5085068;27;45357;-91
2022/03/03 03:04:20;;;;;;;;;59.25;46.25;;;;;11.50;53.10;101275.63;5085593;27;45221;-91
2022/03/03 03:06:45;;;;;;;;;57.50;45.75;;;;;10.85;53.40;101148.31;5084671;27;46988;-91
2022/03/03 03:09:11;;;;;;;;;57.00;46.00;;;;;10.82;53.27;101146.63;5084502;27;45433;-91
2022/03/03 03:11:36;;;;;;;;;58.75;47.25;;;;;12.24;53.19;101377.78;5084701;27;45275;-91
2022/03/03 03:14:02;;;;;;;;;60.75;47.75;;;;;10.76;53.40;101117.53;5084383;27;45505;-91
2022/03/03 03:16:27;;;;;;;;;62.75;48.00;;;;;11.34;53.18;101216.63;5084018;27;47903;-91
2022/03/03 03:18:52;;;;;;;;;58.00;45.75;;;;;12.23;53.65;101369.81;5084537;27;45339;-91
2022/03/03 03:21:18;;;;;;;;;58.25;45.75;;;;;11.97;53.11;101318.28;5084276;27;45551;-91
2022/03/03 03:23:43;;;;;;;;;60.50;46.50;;;;;11.98;53.58;101317.34;5016130;27;45391;-91
2022/03/03 03:26:09;;;;;;;;;61.25;48.00;;;;;11.35;53.33;101190.78;5015986;28;45254;-91
2022/03/03 03:28:34;;;;;;;;;59.50;46.00;;;;;10.86;53.48;101126.03;5083851;27;45501;-92
2022/03/03 03:30:59;;;;;;;;;59.25;45.75;;;;;11.53;53.14;101229.25;5084410;27;45899;-91
2022/03/03 03:33:25;;;;;;;;;49.00;38.25;;;;;12.35;53.35;101363.09;5083845;27;45385;-91
2022/03/03 03:35:50;;;;;;;;;64.00;47.75;;;;;12.35;53.32;101350.59;5015602;28;45423;-91
2022/03/03 03:38:16;;;;;;;;;60.50;44.50;;;;;11.73;53.31;101258.69;5083741;27;45522;-90
2022/03/03 03:40:41;;;;;;;;;57.25;45.75;;;;;11.74;53.11;101256.88;5015474;27;45423;-91
2022/03/03 03:43:06;;;;;;;;;58.25;47.00;;;;;12.39;53.26;101360.22;5016266;27;45372;-91
2022/03/03 03:45:34;;;;;;;;;56.50;45.25;;;;;11.78;53.54;101239.81;5084005;27;47138;-91
2022/03/03 03:47:59;;;;;;;;;58.00;46.00;;;;;10.94;53.24;101094.63;5084004;27;45330;-91
2022/03/03 03:50:25;;;;;;;;;58.25;46.75;;;;;11.83;53.38;101251.16;5083632;27;45340;-91
2022/03/03 03:52:51;;;;;;;;;57.75;47.00;;;;;12.46;53.13;101343.00;5084134;27;45240;-91
2022/03/03 03:55:16;;;;;;;;;59.25;46.75;;;;;12.19;53.46;101285.34;5083035;27;47171;-91
2022/03/03 03:57:42;;;;;;;;;57.25;46.00;;;;;11.46;52.90;101161.88;5083553;27;45295;-91
2022/03/03 04:00:13;;;;;;;;;61.75;47.75;;;;;12.41;52.95;101309.38;5015183;28;45303;-91
2022/03/03 04:02:43;;;;;;;;;43.50;33.50;;;;;11.76;53.28;101197.13;5083812;27;45448;-91
2022/03/03 04:05:09;;;;;;;;;61.00;47.50;;;;;11.71;53.37;101185.78;5083114;27;48292;-91
2022/03/03 04:07:34;;;;;;;;;53.50;44.00;;;;;12.58;53.48;101336.25;5082937;27;45641;-91
2022/03/03 04:10:00;;;;;;;;;57.75;45.50;;;;;12.57;53.29;101331.84;5013959;28;45235;-91
2022/03/03 04:12:25;;;;;;;;;55.25;45.00;;;;;11.69;53.41;101173.44;5015392;28;45339;-91
2022/03/03 04:14:52;;;;;;;;;58.00;47.00;;;;;11.46;53.26;101142.34;5015072;27;45493;-91
2022/03/03 04:17:17;;;;;;;;;60.50;44.25;;;;;12.42;53.51;101301.28;5083625;27;45436;-91
2022/03/03 04:19:42;;;;;;;;;61.25;49.00;;;;;12.13;53.57;101232.16;5014898;27;45786;-91
2022/03/03 04:22:08;;;;;;;;;56.00;45.00;;;;;11.40;53.48;101114.06;5083586;27;45329;-91
2022/03/03 04:24:33;;;;;;;;;55.25;43.50;;;;;12.62;53.56;101296.91;5082861;27;47222;-91
2022/03/03 04:26:59;;;;;;;;;61.75;50.50;;;;;11.12;54.29;101043.19;5083281;27;45495;-91
2022/03/03 04:29:24;;;;;;;;;53.00;42.25;;;;;11.40;54.21;101093.63;5083095;27;45250;-91
2022/03/03 04:31:51;;;;;;;;;55.25;46.25;;;;;11.54;54.54;101110.84;5015364;27;45222;-90
2022/03/03 04:34:17;;;;;;;;;55.25;43.25;;;;;12.47;54.39;101263.66;5083190;27;47384;-91
2022/03/03 04:36:42;;;;;;;;;48.25;41.50;;;;;12.63;54.63;101280.75;5037297;27;46016;-91
2022/03/03 04:39:08;;;;;;;;;52.75;43.50;;;;;11.18;54.61;101050.94;5019455;28;45487;-90
2022/03/03 04:41:33;;;;;;;;;53.25;43.75;;;;;12.69;54.98;101303.72;5051521;27;45537;-91
2022/03/03 04:43:58;;;;;;;;;56.00;46.75;;;;;12.71;54.36;101282.22;4999955;28;48199;-91
2022/03/03 04:46:24;;;;;;;;;55.75;44.00;;;;;12.70;54.86;101300.09;5000137;28;45382;-91
2022/03/03 04:48:49;;;;;;;;;55.00;43.50;;;;;12.70;54.58;101280.50;5000107;28;45420;-91
2022/03/03 04:51:15;;;;;;;;;56.25;44.25;;;;;12.10;54.61;101190.38;4999891;28;45354;-91
2022/03/03 04:53:40;;;;;;;;;53.25;43.75;;;;;11.36;54.42;101065.31;4999134;28;47354;-91
2022/03/03 04:56:06;;;;;;;;;54.00;45.00;;;;;12.07;54.26;101184.31;5017581;28;45437;-90
2022/03/03 04:58:31;;;;;;;;;62.00;49.25;;;;;12.40;54.44;101227.44;5083830;27;45509;-91
2022/03/03 05:00:57;;;;;;;;;54.50;43.75;;;;;11.46;54.19;101071.13;4999736;28;45425;-91
2022/03/03 05:03:22;;;;;;;;;62.75;51.00;;;;;12.67;54.64;101281.50;4999616;28;48216;-91
2022/03/03 05:05:48;;;;;;;;;54.50;43.25;;;;;11.93;54.01;101160.88;5017134;28;45373;-91
2022/03/03 05:08:13;;;;;;;;;59.25;49.75;;;;;12.36;54.46;101223.13;5017633;28;45613;-91
2022/03/03 05:10:38;;;;;;;;;57.25;45.75;;;;;11.27;54.09;101046.16;4999805;28;45559;-91
2022/03/03 05:13:04;;;;;;;;;57.50;46.00;;;;;11.30;54.29;101035.34;5017050;28;46424;-91
2022/03/03 05:15:29;;;;;;;;;53.50;43.25;;;;;11.78;54.39;101139.19;5017139;28;45455;-91
2022/03/03 05:17:55;;;;;;;;;54.50;45.25;;;;;12.23;54.24;101198.75;5017382;28;45360;-91
2022/03/03 05:20:21;;;;;;;;;59.50;49.00;;;;;11.97;54.34;101150.00;4999649;28;45531;-91
2022/03/03 05:22:46;;;;;;;;;56.50;44.75;;;;;11.65;54.34;101094.38;4999207;28;47237;-91
2022/03/03 05:25:12;;;;;;;;;56.50;46.75;;;;;12.62;54.99;101268.34;4999421;28;45354;-91
2022/03/03 05:27:39;;;;;;;;;57.25;45.25;;;;;12.61;55.19;101268.41;5017097;27;45872;-91
2022/03/03 05:30:06;;;;;;;;;53.25;43.75;;;;;12.04;55.13;101180.00;4999710;28;45408;-91
2022/03/03 05:32:31;;;;;;;;;54.75;44.00;;;;;11.27;54.93;101043.50;4999017;28;47257;-91
2022/03/03 05:34:57;;;;;;;;;57.00;44.25;;;;;12.68;55.33;101288.59;4999114;28;45479;-91
2022/03/03 05:37:24;;;;;;;;;50.25;41.00;;;;;12.48;55.10;101262.72;4999465;28;45326;-91
2022/03/03 05:39:53;;;;;;;;;53.75;44.00;;;;;12.59;55.55;101275.63;4999608;28;45512;-91
2022/03/03 05:42:20;;;;;;;;;56.00;44.00;;;;;12.39;55.89;101225.69;4998897;27;48411;-91
2022/03/03 05:44:46;;;;;;;;;54.50;44.50;;;;;12.71;56.05;101277.75;4999081;28;45491;-91
2022/03/03 05:47:13;;;;;;;;;53.50;45.75;;;;;11.64;55.92;101098.88;4999251;28;45326;-91
2022/03/03 05:49:40;;;;;;;;;54.00;40.75;;;;;12.11;56.28;101177.94;5017449;28;45392;-91
2022/03/03 05:52:07;;;;;;;;;48.00;40.50;;;;;11.91;56.66;101144.03;4999100;28;47202;-91
2022/03/03 05:54:32;;;;;;;;;47.25;40.00;;;;;12.77;56.82;101281.97;5016740;28;45361;-91
2022/03/03 05:57:00;;;;;;;;;46.00;38.00;;;;;12.58;56.88;101264.06;4999229;28;45421;-92
2022/03/03 05:59:31;;;;;;;;;54.75;41.50;;;;;12.79;56.76;101290.81;5017510;28;45368;-91
2022/03/03 06:01:58;;;;;;;;;49.75;39.25;;;;;11.87;56.74;101135.31;5016711;28;46481;-91
2022/03/03 06:04:27;;;;;;;;;47.50;40.50;;;;;11.32;57.15;101023.66;4999069;28;45741;-91
2022/03/03 06:07:04;;;;;;;;;47.75;40.00;;;;;12.31;57.34;101201.97;4999372;28;45494;-91
2022/03/03 06:09:34;;;;;;;;;44.75;39.75;;;;;11.52;57.66;101052.19;5000088;28;45424;-91
2022/03/03 06:12:14;;;;;;;;;49.00;38.25;;;;;11.59;57.61;101056.34;5017136;28;45475;-91
2022/03/03 06:14:46;;;;;;;;;41.75;37.50;;;;;11.65;57.40;101067.69;5016762;28;45210;-91
2022/03/03 06:17:13;;;;;;;;;52.00;41.00;;;;;12.17;57.13;101157.13;4998776;28;45381;-91
2022/03/03 06:19:41;;;;;;;;;54.00;41.00;;;;;12.19;57.48;101152.59;4999014;28;45484;-91
2022/03/03 06:22:11;;;;;;;;;41.75;38.00;;;;;12.67;57.11;101242.25;5085030;27;47559;-91
2022/03/03 06:24:37;;;;;;;;;54.00;42.75;;;;;12.95;57.07;101280.28;4998623;28;45410;-91
2022/03/03 06:27:03;;;;;;;;;61.00;45.75;;;;;12.37;56.84;101201.69;4998703;28;45351;-92
2022/03/03 06:29:29;;;;;;;;;57.00;46.25;;;;;12.48;56.52;101206.59;4998939;28;45452;-91
2022/03/03 06:31:55;;;;;;;;;61.50;50.00;;;;;13.00;55.94;101289.84;4998649;28;46437;-91
2022/03/03 06:34:21;;;;;;;;;63.50;50.00;;;;;13.01;56.29;101288.03;5016158;28;45289;-91
2022/03/03 06:36:47;;;;;;;;;64.25;49.75;;;;;12.45;56.02;101183.53;4982212;28;45495;-91
2022/03/03 06:39:13;;;;;;;;;62.25;47.75;;;;;11.84;55.63;101073.94;4996884;28;45457;-91
2022/03/03 06:41:38;;;;;;;;;65.50;50.75;;;;;12.14;55.82;101137.69;5094178;27;47083;-91
2022/03/03 06:44:04;;;;;;;;;62.50;50.75;;;;;12.51;55.58;101200.22;5084845;27;45515;-91
2022/03/03 06:46:29;;;;;;;;;61.25;49.00;;;;;11.79;55.93;101078.63;5084849;27;45416;-91
2022/03/03 06:48:54;;;;;;;;;65.75;53.25;;;;;12.76;55.75;101229.41;5016504;27;45665;-92
2022/03/03 06:51:22;;;;;;;;;57.50;48.25;;;;;12.18;55.40;101137.50;5016063;28;45465;-91
2022/03/03 06:53:53;;;;;;;;;64.50;51.00;;;;;12.56;55.72;101203.56;5084275;27;45542;-91
2022/03/03 06:56:23;;;;;;;;;55.75;45.75;;;;;12.28;55.43;101154.00;5102016;27;45333;-91
2022/03/03 06:58:52;;;;;;;;;60.75;47.00;;;;;12.89;55.05;101242.16;5084230;27;45567;-91
2022/03/03 07:01:21;;;;;;;;;56.75;47.75;;;;;13.23;56.05;101294.16;5084120;27;47566;-91
2022/03/03 07:03:47;;;;;;;;;66.00;53.00;;;;;12.21;55.50;101112.44;5015835;28;45518;-90
2022/03/03 07:06:13;;;;;;;;;59.00;48.25;;;;;12.33;55.83;101154.66;5083926;27;45555;-91
2022/03/03 07:08:39;;;;;;;;;46.50;39.25;;;;;13.25;56.53;101296.75;5015927;27;45511;-91
2022/03/03 07:11:05;;;;;;;;;45.50;39.75;;;;;12.31;56.75;101137.81;5084141;27;47939;-92
2022/03/03 07:13:31;;;;;;;;;46.00;37.75;;;;;12.76;57.42;101199.97;5085120;27;45701;-92
2022/03/03 07:16:37;;;;;;;;;38.25;33.75;;;;;13.07;57.63;101263.69;5084379;27;45381;-91
2022/03/03 07:19:04;;;;;;;;;42.00;36.25;;;;;12.17;58.15;101093.00;5016119;27;45381;-91
2022/03/03 07:22:01;;;;;;;;;33.33;33.33;;;;;13.25;57.89;101288.72;5100538;27;46230;-91
2022/03/03 07:24:39;;;;;;;;;37.50;34.75;;;;;13.38;58.14;101310.47;5077701;27;45462;-91
2022/03/03 07:27:05;;;;;;;;;33.67;30.33;;;;;12.46;57.97;101142.47;5083722;27;45382;-91
2022/03/03 07:29:33;;;;;;;;;34.67;34.67;;;;;12.63;58.60;101171.13;5101380;27;45241;-91
2022/03/03 07:32:05;;;;;;;;;44.33;37.00;;;;;13.34;58.50;101285.63;5083482;27;47380;-91
2022/03/03 07:34:34;;;;;;;;;33.00;31.33;;;;;12.93;58.20;101202.75;5014885;27;45340;-91
2022/03/03 07:37:07;;;;;;;;;38.75;35.75;;;;;12.54;58.56;101141.25;5022289;27;45449;-91
2022/03/03 07:39:41;;;;;;;;;34.33;32.67;;;;;12.60;58.46;101147.19;4994525;28;45501;-91
2022/03/03 07:42:15;;;;;;;;;40.00;33.67;;;;;13.55;58.02;101291.78;4996318;27;46478;-91
2022/03/03 07:44:41;;;;;;;;;38.00;36.50;;;;;13.02;58.07;101213.03;4995762;28;45405;-91
2022/03/03 07:47:08;;;;;;;;;46.50;36.00;;;;;13.29;58.30;101234.13;4977924;28;45432;-91
2022/03/03 07:49:33;;;;;;;;;40.25;35.00;;;;;13.08;58.09;101198.50;4995557;28;45287;-91
2022/03/03 07:52:01;;;;;;;;;44.50;35.75;;;;;12.79;57.66;101138.34;4977232;28;47960;-91
2022/03/03 07:54:27;;;;;;;;;51.00;37.25;;;;;12.54;57.91;101095.81;4994751;28;45390;-90
2022/03/03 07:56:56;;;;;;;;;33.67;32.00;;;;;13.05;57.73;101185.28;4993794;28;45489;-91
2022/03/03 07:59:27;;;;;;;;;40.67;35.67;;;;;13.76;57.57;101289.03;4993722;28;45423;-90
2022/03/03 08:01:54;;;;;;;;;39.75;35.25;;;;;12.57;57.73;101096.56;4977383;28;46138;-90
2022/03/03 08:04:27;;;;;;;;;36.33;34.33;;;;;12.67;57.89;101102.34;4993274;28;45542;-90
2022/03/03 08:06:55;;;;;;;;;38.25;35.75;;;;;13.72;57.40;101273.13;4995045;28;45540;-90
2022/03/03 08:09:23;;;;;;;;;40.50;33.75;;;;;12.70;58.03;101091.47;4992549;28;45695;-89
2022/03/03 08:11:51;;;;;;;;;35.00;32.67;;;;;13.57;57.88;101248.88;4992972;28;47261;-89
2022/03/03 08:14:17;;;;;;;;;46.00;37.00;;;;;12.53;58.02;101052.16;4994321;28;45321;-94
2022/03/03 08:16:45;;;;;;;;;39.25;36.50;;;;;13.08;57.81;101144.97;5006019;28;45323;-92
2022/03/03 08:19:11;;;;;;;;;33.67;32.67;;;;;13.31;57.53;101178.69;4980153;28;45500;-88
2022/03/03 08:21:37;;;;;;;;;49.00;41.25;;;;;13.91;57.92;101269.56;4972653;28;47219;-85
2022/03/03 08:24:03;;;;;;;;;37.00;33.67;;;;;13.98;57.89;101275.44;5031229;28;45319;-90
2022/03/03 08:26:30;;;;;;;;;31.67;30.67;;;;;13.97;57.80;101279.09;5062036;28;45496;-89
2022/03/03 08:28:55;;;;;;;;;35.33;31.00;;;;;13.29;57.88;101167.19;5051439;28;45598;-88
2022/03/03 08:31:32;;;;;;;;;36.67;33.33;;;;;13.47;57.63;101198.44;4981404;27;47060;-88
2022/03/03 08:34:09;;;;;;;;;34.67;31.67;;;;;13.84;58.21;101247.53;4973015;28;46007;-90
2022/03/03 08:36:47;;;;;;;;;34.67;33.67;;;;;14.07;57.99;101289.28;5049973;27;45247;-93
2022/03/03 08:39:15;;;;;;;;;40.33;35.33;;;;;13.19;57.94;101141.78;5042261;27;45486;-88
2022/03/03 08:41:42;;;;;;;;;39.67;32.33;;;;;14.09;57.71;101298.13;4974741;28;47189;-90
2022/03/03 08:44:09;;;;;;;;;35.33;30.67;;;;;13.32;58.46;101156.34;5066493;27;45945;-89
2022/03/03 08:46:38;;;;;;;;;37.00;31.33;;;;;13.28;57.74;101155.63;5080662;27;45465;-92
2022/03/03 08:49:06;;;;;;;;;34.00;32.33;;;;;12.75;58.01;101060.03;5082651;27;45443;-90
2022/03/03 08:51:32;;;;;;;;;37.67;31.33;;;;;14.20;57.63;101304.75;5010343;27;45456;-91
2022/03/03 08:53:58;;;;;;;;;35.67;33.00;;;;;13.02;58.00;101103.31;5013638;28;45494;-90
2022/03/03 08:56:23;;;;;;;;;37.67;32.67;;;;;13.95;57.58;101265.75;5006508;28;45345;-91
2022/03/03 08:58:51;;;;;;;;;43.50;34.00;;;;;14.25;57.67;101311.63;5014753;28;45467;-91
2022/03/03 09:01:17;;;;;;;;;31.00;28.67;;;;;14.31;57.51;101311.31;5012165;28;46283;-91
2022/03/03 09:03:43;;;;;;;;;32.67;30.33;;;;;14.03;57.59;101263.56;5103130;27;45395;-91
2022/03/03 09:06:15;;;;;;;;;33.67;29.67;;;;;13.63;57.50;101195.88;5017013;27;45388;-91
2022/03/03 09:08:41;;;;;;;;;33.00;26.33;;;;;14.42;57.08;101305.44;5015875;28;45382;-88
2022/03/03 09:11:07;;;;;;;;;38.00;30.67;;;;;13.50;57.14;101155.44;5036845;27;46938;-87
2022/03/03 09:13:32;;;;;;;;;39.33;33.00;;;;;13.30;56.86;101107.38;5003694;28;45391;-88
2022/03/03 09:16:01;;;;;;;;;38.00;31.33;;;;;13.29;56.64;101101.13;5001515;28;45428;-95
2022/03/03 09:18:27;;;;;;;;;26.67;24.33;;;;;14.08;57.02;101240.09;5010071;27;45549;-94
2022/03/03 09:20:52;;;;;;;;;39.67;33.33;;;;;13.94;56.89;101203.25;5024912;28;48271;-88
2022/03/03 09:23:18;;;;;;;;;36.00;29.00;;;;;14.61;56.80;101297.34;5001772;28;45453;-85
2022/03/03 09:25:43;;;;;;;;;39.33;30.67;;;;;14.34;56.44;101256.66;5014564;27;45428;-90
2022/03/03 09:28:09;;;;;;;;;38.33;35.00;;;;;14.03;56.74;101203.75;4998210;28;45488;-88
2022/03/03 09:30:38;;;;;;;;;33.00;29.00;;;;;14.19;56.23;101220.78;5009085;28;46528;-92
2022/03/03 09:33:04;;;;;;;;;37.00;31.67;;;;;14.22;56.61;101217.94;5009641;28;45340;-93
2022/03/03 09:35:31;;;;;;;;;42.33;35.67;;;;;14.28;56.55;101223.00;5006950;27;45457;-88
2022/03/03 09:37:56;;;;;;;;;32.67;30.33;;;;;14.06;56.49;101176.78;4991732;28;45634;-88
2022/03/03 09:40:22;;;;;;;;;38.50;34.00;;;;;13.87;56.02;101132.16;5007257;27;46635;-91
2022/03/03 09:43:06;;;;;;;;;31.67;29.67;;;;;14.17;55.91;101182.47;5003072;28;45565;-88
2022/03/03 09:45:33;;;;;;;;;36.00;30.67;;;;;14.78;55.76;101264.25;4995704;28;45407;-92
2022/03/03 09:48:00;;;;;;;;;34.67;30.33;;;;;14.97;55.65;101293.66;5012187;28;45562;-93
2022/03/03 09:50:27;;;;;;;;;39.33;32.67;;;;;14.20;56.10;101160.84;5017473;28;46531;-91
2022/03/03 09:52:53;;;;;;;;;41.67;35.00;;;;;14.76;55.86;101245.53;4996450;28;45463;-91
2022/03/03 09:55:19;;;;;;;;;44.25;35.25;;;;;14.73;55.52;101220.69;4998413;28;45452;-89
2022/03/03 09:57:45;;;;;;;;;39.50;35.50;;;;;15.17;55.69;101281.81;5008239;28;45452;-89
2022/03/03 10:00:12;;;;;;;;;35.33;32.33;;;;;14.83;55.46;101237.16;4996453;28;46926;-91
2022/03/03 10:03:14;;;;;;;;;38.67;32.00;;;;;14.97;54.97;101261.44;4998395;28;45388;-91
2022/03/03 10:05:45;;;;;;;;;35.00;32.67;;;;;14.99;54.89;101256.88;4999997;28;45555;-92
2022/03/03 10:08:12;;;;;;;;;39.00;31.67;;;;;14.79;55.04;101228.41;4998524;28;45333;-91
2022/03/03 10:10:44;;;;;;;;;37.00;31.67;;;;;14.43;55.72;101181.09;5007216;28;47252;-89
2022/03/03 10:13:14;;;;;;;;;45.50;38.00;;;;;14.48;55.72;101188.91;5004657;28;45421;-90
2022/03/03 10:15:40;;;;;;;;;34.67;24.00;;;;;14.89;55.55;101252.91;5001286;28;45373;-91
2022/03/03 10:18:09;;;;;;;;;38.67;32.33;;;;;15.13;55.75;101282.97;4995412;28;45643;-90
2022/03/03 10:20:46;;;;;;;;;31.00;29.00;;;;;14.61;55.39;101176.59;4996995;28;48565;-89
2022/03/03 10:23:12;;;;;;;;;35.67;31.33;;;;;14.89;55.15;101208.19;4996775;28;46284;-89
2022/03/03 10:25:42;;;;;;;;;38.33;33.00;;;;;14.66;55.15;101162.94;4993847;28;45513;-90
2022/03/03 10:28:32;;;;;;;;;32.33;31.33;;;;;15.39;55.05;101282.41;4995002;28;45563;-90
2022/03/03 10:31:12;;;;;;;;;36.67;33.00;;;;;15.40;54.95;101289.53;4998654;28;47103;-89
2022/03/03 10:33:45;;;;;;;;;38.67;33.33;;;;;15.12;55.69;101235.56;5000562;28;45447;-96
2022/03/03 10:36:12;;;;;;;;;35.00;31.50;;;;;15.45;55.58;101285.69;5005982;28;45439;-91
2022/03/03 10:38:47;;;;;;;;;41.67;33.33;;;;;14.32;55.21;101089.63;5002116;28;45478;-92
2022/03/03 10:41:33;;;;;;;;;36.00;32.67;;;;;15.48;55.15;101280.16;5007039;28;46450;-89
2022/03/03 10:44:03;;;;;;;;;34.33;33.00;;;;;14.92;55.56;101181.16;4996548;28;45609;-92
2022/03/03 10:46:30;;;;;;;;;41.00;34.67;;;;;14.70;55.53;101140.34;5000212;28;45385;-89
2022/03/03 10:48:56;;;;;;;;;44.00;33.67;;;;;14.77;55.31;101144.41;4995513;28;45480;-90
2022/03/03 10:51:24;;;;;;;;;35.33;33.00;;;;;15.68;55.22;101276.34;4997259;28;46424;-89
2022/03/03 10:53:54;;;;;;;;;29.67;27.00;;;;;15.28;55.03;101214.13;5010347;28;45476;-88
2022/03/03 10:56:20;;;;;;;;;31.67;29.00;;;;;15.08;54.67;101170.44;5003923;28;45453;-91
2022/03/03 10:58:57;;;;;;;;;36.67;31.00;;;;;15.72;54.57;101269.88;5025664;27;45526;-90
2022/03/03 11:01:28;;;;;;;;;37.67;32.67;;;;;15.74;54.66;101274.22;4999567;28;46300;-90
2022/03/03 11:03:55;;;;;;;;;38.67;32.67;;;;;15.74;54.65;101276.03;5004461;28;45342;-91
2022/03/03 11:06:24;;;;;;;;;40.67;32.00;;;;;15.73;54.85;101272.50;4993091;28;45450;-91
2022/03/03 11:08:51;;;;;;;;;39.67;35.33;;;;;15.20;54.72;101188.56;4995635;28;45443;-90
2022/03/03 11:11:18;;;;;;;;;34.33;28.67;;;;;14.96;54.46;101155.91;4995093;28;46946;-91
2022/03/03 11:13:47;;;;;;;;;28.33;27.33;;;;;15.63;54.67;101274.78;4996546;28;46249;-89